Time;durP1;ratioP1;P1;durP2;ratioP2;P2;SDS_P1;SDS_P2;PMS_P1;PMS_P2;Temp;Humidity;BMP_temperature;BMP_pressure;BME280_temperature;BME280_humidity;BME280_pressure;Samples;Min_cycle;Max_cycle;Signal;HPM_P1;HPM_P2
2022/03/31 00:01:59;;;;;;;2.13;1.45;;;19.70;42.90;;;;;;6195261;28;20034;-68
2022/03/31 00:05:00;;;;;;;2.05;1.33;;;19.70;42.90;;;;;;6195323;28;20551;-67
2022/03/31 00:08:14;;;;;;;2.88;1.40;;;19.70;42.90;;;;;;6195028;28;20049;-67
2022/03/31 00:11:15;;;;;;;2.90;1.70;;;19.70;43.00;;;;;;6195276;28;20501;-68
2022/03/31 00:14:15;;;;;;;2.03;1.15;;;19.70;42.90;;;;;;6195352;28;20130;-68
2022/03/31 00:17:16;;;;;;;2.58;1.52;;;19.70;42.90;;;;;;6195092;28;20027;-67
2022/03/31 00:20:16;;;;;;;1.75;1.23;;;19.70;43.00;;;;;;6194768;28;20030;-68
2022/03/31 00:23:17;;;;;;;2.45;1.50;;;19.70;42.90;;;;;;6195004;28;20027;-67
2022/03/31 00:26:18;;;;;;;2.97;1.50;;;19.70;43.00;;;;;;6194560;28;20088;-68
2022/03/31 00:29:18;;;;;;;3.45;1.45;;;19.70;43.00;;;;;;6194628;28;20034;-67
2022/03/31 00:32:19;;;;;;;2.25;1.42;;;19.70;43.10;;;;;;6195207;28;20078;-67
2022/03/31 00:35:19;;;;;;;1.60;1.00;;;19.70;43.00;;;;;;6195767;28;20535;-67
2022/03/31 00:38:20;;;;;;;1.73;1.10;;;19.70;43.10;;;;;;6195077;28;20037;-67
2022/03/31 00:41:21;;;;;;;2.42;1.50;;;19.70;43.00;;;;;;6194693;28;20505;-67
2022/03/31 00:44:22;;;;;;;2.03;1.20;;;19.80;43.10;;;;;;6194603;28;20030;-67
2022/03/31 00:47:22;;;;;;;1.92;1.00;;;19.70;43.00;;;;;;6194825;28;20114;-67
2022/03/31 00:50:23;;;;;;;4.53;1.65;;;19.70;43.10;;;;;;6194610;28;20028;-67
2022/03/31 00:53:24;;;;;;;3.70;1.50;;;19.70;43.00;;;;;;6194363;28;20105;-68
2022/03/31 00:56:25;;;;;;;1.70;1.30;;;19.70;43.10;;;;;;6194738;28;20064;-67
2022/03/31 00:59:26;;;;;;;1.90;1.33;;;19.70;43.10;;;;;;6195446;28;20019;-68
2022/03/31 01:02:31;;;;;;;1.63;1.13;;;19.70;43.10;;;;;;6199140;28;20133;-67
2022/03/31 01:05:32;;;;;;;1.30;1.00;;;19.70;43.10;;;;;;6199056;28;20121;-67
2022/03/31 01:08:33;;;;;;;3.25;1.30;;;19.70;43.10;;;;;;6199352;28;20107;-67
2022/03/31 01:11:33;;;;;;;1.77;1.13;;;19.70;43.10;;;;;;6198879;28;20026;-67
2022/03/31 01:14:34;;;;;;;1.42;1.00;;;19.70;43.10;;;;;;6199243;28;20029;-67
2022/03/31 01:17:36;;;;;;;1.90;1.15;;;19.70;43.10;;;;;;6198995;28;20074;-67
2022/03/31 01:20:36;;;;;;;1.70;1.10;;;19.70;43.10;;;;;;6199058;28;20021;-67
2022/03/31 01:23:37;;;;;;;1.48;1.00;;;19.70;43.10;;;;;;6198868;28;20105;-67
2022/03/31 01:26:38;;;;;;;2.92;1.17;;;19.70;43.10;;;;;;6198619;28;20077;-68
2022/03/31 01:29:38;;;;;;;1.70;1.00;;;19.70;43.10;;;;;;6198299;28;20045;-67
2022/03/31 01:32:40;;;;;;;2.38;1.27;;;19.70;43.10;;;;;;6198589;28;20274;-67
2022/03/31 01:35:41;;;;;;;1.23;0.85;;;19.70;43.20;;;;;;6198840;28;20026;-67
2022/03/31 01:38:41;;;;;;;2.17;1.40;;;19.70;43.20;;;;;;6198713;28;20336;-67
2022/03/31 01:41:42;;;;;;;2.90;1.38;;;19.70;43.20;;;;;;6198566;28;20506;-68
2022/03/31 01:44:42;;;;;;;1.30;1.02;;;19.70;43.20;;;;;;6198365;28;20027;-67
2022/03/31 01:47:44;;;;;;;2.53;1.20;;;19.70;43.20;;;;;;6197968;28;20046;-67
2022/03/31 01:50:44;;;;;;;2.17;1.20;;;19.70;43.20;;;;;;6198640;28;20045;-67
2022/03/31 01:53:45;;;;;;;1.60;1.15;;;19.70;43.20;;;;;;6198608;28;20046;-67
2022/03/31 01:56:45;;;;;;;1.52;1.30;;;19.70;43.20;;;;;;6198495;28;20030;-67
2022/03/31 01:59:46;;;;;;;1.85;1.10;;;19.70;43.30;;;;;;6197983;28;20121;-67
2022/03/31 02:02:46;;;;;;;1.50;0.93;;;19.70;43.20;;;;;;6198496;28;20475;-67
2022/03/31 02:05:47;;;;;;;1.95;1.10;;;19.70;43.20;;;;;;6197811;28;20042;-67
2022/03/31 02:08:47;;;;;;;1.92;1.00;;;19.70;43.20;;;;;;6196746;28;20335;-68
2022/03/31 02:11:48;;;;;;;1.65;1.17;;;19.70;43.20;;;;;;6197208;28;20489;-67
2022/03/31 02:14:48;;;;;;;1.35;1.02;;;19.70;43.20;;;;;;6198310;28;20019;-67
2022/03/31 02:17:49;;;;;;;1.90;1.15;;;19.70;43.30;;;;;;6197566;28;20038;-67
2022/03/31 02:20:50;;;;;;;1.73;1.08;;;19.70;43.30;;;;;;6198136;28;20041;-67
2022/03/31 02:23:50;;;;;;;1.60;1.05;;;19.70;44.00;;;;;;6197415;28;20042;-67
2022/03/31 02:26:51;;;;;;;2.25;0.95;;;19.70;43.30;;;;;;6196970;28;20105;-67
2022/03/31 02:29:51;;;;;;;1.70;1.10;;;19.70;43.30;;;;;;6197244;28;20030;-67
2022/03/31 02:32:52;;;;;;;1.58;0.80;;;19.70;43.30;;;;;;6197271;28;20049;-67
2022/03/31 02:35:52;;;;;;;1.50;1.00;;;19.70;43.30;;;;;;6197284;28;20034;-67
2022/03/31 02:38:53;;;;;;;1.40;0.80;;;19.70;44.00;;;;;;6197333;28;20022;-68
2022/03/31 02:41:54;;;;;;;1.55;1.15;;;19.70;43.30;;;;;;6197206;28;20442;-67
2022/03/31 02:44:54;;;;;;;1.48;0.93;;;19.70;43.30;;;;;;6197138;28;20070;-67
2022/03/31 02:47:55;;;;;;;1.70;1.00;;;19.70;43.30;;;;;;6196820;28;20046;-67
2022/03/31 02:50:55;;;;;;;2.33;1.20;;;19.70;43.30;;;;;;6197182;28;20026;-67
2022/03/31 02:57:18;;;;;;;2.45;1.20;;;19.70;44.00;;;;;;6196573;28;20026;-67
2022/03/31 03:00:19;;;;;;;1.58;0.90;;;19.70;43.30;;;;;;6197201;28;20034;-67
2022/03/31 03:03:20;;;;;;;1.80;0.93;;;19.70;43.30;;;;;;6196729;28;20508;-67
2022/03/31 03:06:20;;;;;;;1.13;0.85;;;19.70;43.40;;;;;;6196865;28;20023;-67
2022/03/31 03:09:21;;;;;;;1.80;0.93;;;19.70;43.30;;;;;;6196563;28;20038;-67
2022/03/31 03:12:22;;;;;;;2.03;1.02;;;19.70;43.30;;;;;;6196406;28;20032;-67
2022/03/31 03:15:24;;;;;;;1.45;0.85;;;19.70;43.30;;;;;;6196577;28;20034;-67
2022/03/31 03:18:25;;;;;;;1.42;0.90;;;19.70;43.30;;;;;;6196347;28;20026;-68
2022/03/31 03:21:26;;;;;;;2.47;1.10;;;19.70;43.30;;;;;;6196263;28;20029;-67
2022/03/31 03:24:26;;;;;;;2.22;0.98;;;19.70;43.30;;;;;;6195803;28;20154;-68
2022/03/31 03:27:27;;;;;;;0.98;0.77;;;19.70;43.30;;;;;;6195901;28;20399;-67
2022/03/31 03:30:27;;;;;;;0.85;0.70;;;19.70;43.40;;;;;;6196283;28;20030;-67
2022/03/31 03:33:28;;;;;;;0.82;0.73;;;19.70;43.30;;;;;;6195869;28;20027;-68
2022/03/31 03:36:29;;;;;;;1.85;1.10;;;19.70;43.30;;;;;;6195977;28;20101;-67
2022/03/31 03:39:30;;;;;;;2.78;1.15;;;19.70;43.30;;;;;;6195511;28;20077;-67
2022/03/31 03:42:31;;;;;;;1.38;0.90;;;19.70;43.30;;;;;;6195684;28;20061;-67
2022/03/31 03:45:32;;;;;;;1.70;1.00;;;19.70;43.40;;;;;;6195585;28;20102;-67
2022/03/31 03:48:33;;;;;;;1.23;0.90;;;19.70;43.30;;;;;;6195693;28;20150;-67
2022/03/31 03:51:33;;;;;;;1.55;0.93;;;19.70;43.30;;;;;;6196093;28;20022;-67
2022/03/31 03:54:34;;;;;;;1.42;1.00;;;19.70;43.30;;;;;;6195609;28;20023;-67
2022/03/31 03:57:34;;;;;;;1.63;0.88;;;19.70;43.40;;;;;;6195274;28;20117;-67
2022/03/31 04:00:35;;;;;;;1.55;0.90;;;19.70;43.40;;;;;;6195018;28;20489;-67
2022/03/31 04:03:35;;;;;;;1.77;1.05;;;19.70;43.40;;;;;;6195189;28;20106;-67
2022/03/31 04:06:37;;;;;;;1.85;1.10;;;19.70;43.40;;;;;;6195252;28;20105;-67
2022/03/31 04:09:37;;;;;;;1.38;0.88;;;19.70;43.40;;;;;;6195441;28;20026;-67
2022/03/31 04:12:39;;;;;;;2.25;1.15;;;19.70;43.30;;;;;;6195513;28;20033;-68
2022/03/31 04:15:39;;;;;;;1.60;0.90;;;19.70;43.40;;;;;;6195200;28;20026;-67
2022/03/31 04:18:40;;;;;;;1.45;1.02;;;19.70;43.30;;;;;;6195015;28;20058;-67
2022/03/31 04:21:40;;;;;;;1.63;1.08;;;19.70;43.40;;;;;;6195150;28;20026;-67
2022/03/31 04:24:41;;;;;;;1.00;0.90;;;19.70;43.30;;;;;;6195011;28;20019;-67
2022/03/31 04:27:41;;;;;;;1.70;0.95;;;19.70;43.30;;;;;;6194672;28;20054;-67
2022/03/31 04:30:42;;;;;;;1.27;0.90;;;19.70;43.30;;;;;;6194688;28;20041;-67
2022/03/31 04:33:42;;;;;;;1.50;1.00;;;19.70;43.90;;;;;;6194357;28;20023;-67
2022/03/31 04:36:43;;;;;;;1.40;0.90;;;19.70;43.30;;;;;;6194910;28;20023;-67
2022/03/31 04:39:43;;;;;;;1.67;1.13;;;19.70;43.30;;;;;;6194326;28;20531;-67
2022/03/31 04:42:44;;;;;;;1.45;0.80;;;19.70;43.30;;;;;;6194698;28;20385;-67
2022/03/31 04:45:44;;;;;;;1.50;0.90;;;19.70;43.30;;;;;;6194801;28;20019;-67
2022/03/31 04:48:45;;;;;;;1.52;1.00;;;19.70;43.30;;;;;;6193467;28;20034;-67
2022/03/31 04:51:46;;;;;;;1.90;0.85;;;19.70;43.40;;;;;;6194491;28;20112;-67
2022/03/31 04:54:47;;;;;;;1.10;0.70;;;19.70;43.40;;;;;;6194184;28;20094;-68
2022/03/31 04:57:47;;;;;;;1.35;1.00;;;19.70;43.30;;;;;;6194217;28;20022;-67
2022/03/31 05:00:48;;;;;;;2.17;1.00;;;19.70;43.30;;;;;;6193801;28;20021;-67
2022/03/31 05:03:49;;;;;;;2.22;1.10;;;19.70;43.40;;;;;;6170543;28;20026;-67
2022/03/31 05:06:50;;;;;;;1.40;0.80;;;19.70;43.30;;;;;;6170078;28;20085;-67
2022/03/31 05:09:51;;;;;;;1.42;0.88;;;19.70;43.30;;;;;;6170157;28;20430;-67
2022/03/31 05:12:51;;;;;;;0.77;0.68;;;19.70;43.30;;;;;;6175153;28;20116;-67
2022/03/31 05:15:52;;;;;;;1.58;0.90;;;19.70;43.20;;;;;;6194387;28;20041;-67
2022/03/31 05:18:53;;;;;;;1.70;0.95;;;19.70;43.30;;;;;;6194436;28;20533;-68
2022/03/31 05:21:53;;;;;;;1.23;0.93;;;19.70;43.30;;;;;;6193889;28;20030;-68
2022/03/31 05:24:53;;;;;;;1.00;0.73;;;19.70;43.30;;;;;;6193512;28;20478;-67
2022/03/31 05:27:57;;;;;;;1.70;0.90;;;19.70;43.30;;;;;;6193658;28;20054;-67
2022/03/31 05:30:57;;;;;;;1.85;0.98;;;19.70;43.30;;;;;;6193744;28;20027;-67
2022/03/31 05:33:58;;;;;;;1.30;0.90;;;19.70;43.20;;;;;;6193836;28;20035;-67
2022/03/31 05:36:58;;;;;;;4.28;1.00;;;19.70;43.30;;;;;;6194260;28;20097;-67
2022/03/31 05:40:04;;;;;;;1.40;0.93;;;19.70;43.30;;;;;;6194238;28;20026;-68
2022/03/31 05:43:04;;;;;;;1.20;0.70;;;19.70;43.20;;;;;;6193734;28;20073;-68
2022/03/31 05:46:05;;;;;;;1.35;0.90;;;19.70;43.20;;;;;;6194510;28;20473;-68
2022/03/31 05:49:05;;;;;;;1.52;1.17;;;19.70;43.30;;;;;;6198107;28;20049;-68
2022/03/31 05:52:06;;;;;;;1.10;0.75;;;19.70;43.20;;;;;;6198325;28;20084;-67
2022/03/31 05:55:08;;;;;;;1.17;0.90;;;19.70;43.20;;;;;;6197785;28;20037;-67
2022/03/31 05:58:09;;;;;;;2.75;1.20;;;19.70;43.30;;;;;;6198157;28;20435;-67
2022/03/31 06:01:09;;;;;;;1.00;0.82;;;19.70;43.20;;;;;;6192872;28;20025;-67
2022/03/31 06:04:10;;;;;;;1.10;0.80;;;19.70;43.20;;;;;;6200239;28;20485;-67
2022/03/31 06:07:11;;;;;;;1.02;0.70;;;19.70;43.20;;;;;;6200441;28;20141;-67
2022/03/31 06:10:12;;;;;;;1.33;0.90;;;19.70;43.20;;;;;;6200564;28;20018;-67
2022/03/31 06:13:12;;;;;;;1.38;0.98;;;19.70;43.30;;;;;;6200006;28;20026;-67
2022/03/31 06:16:13;;;;;;;1.40;0.90;;;19.70;43.30;;;;;;6199865;28;20030;-67
2022/03/31 06:19:13;;;;;;;1.33;0.65;;;19.70;43.30;;;;;;6199617;28;20030;-67
2022/03/31 06:22:14;;;;;;;1.00;0.80;;;19.70;43.30;;;;;;6199919;28;20026;-67
2022/03/31 06:25:14;;;;;;;1.20;0.80;;;19.70;43.30;;;;;;6199874;28;20101;-67
2022/03/31 06:28:15;;;;;;;1.20;0.70;;;19.70;43.30;;;;;;6199240;28;20153;-67
2022/03/31 06:31:16;;;;;;;1.40;0.90;;;19.70;43.30;;;;;;6199587;28;20495;-68
2022/03/31 06:34:17;;;;;;;1.02;0.82;;;19.70;43.40;;;;;;6199414;28;20033;-67
2022/03/31 06:37:19;;;;;;;1.88;0.90;;;19.70;43.30;;;;;;6199616;28;20014;-67
2022/03/31 06:40:19;;;;;;;2.33;0.80;;;19.70;43.40;;;;;;6199473;28;20170;-67
2022/03/31 06:43:20;;;;;;;2.05;0.93;;;19.70;43.30;;;;;;6199177;28;20022;-67
2022/03/31 06:46:20;;;;;;;1.25;0.70;;;19.70;43.30;;;;;;6199110;28;20026;-67
2022/03/31 06:49:21;;;;;;;1.33;0.90;;;19.70;43.30;;;;;;6198404;28;20462;-67
2022/03/31 06:52:22;;;;;;;2.60;1.00;;;19.70;43.20;;;;;;6185952;28;20049;-68
2022/03/31 06:55:22;;;;;;;1.30;0.88;;;19.70;43.20;;;;;;6195570;28;20065;-68
2022/03/31 06:58:25;;;;;;;1.77;0.90;;;19.70;43.30;;;;;;6199508;28;20034;-67
2022/03/31 07:01:26;;;;;;;1.67;0.90;;;19.70;43.20;;;;;;6197221;28;20023;-67
2022/03/31 07:04:27;;;;;;;1.48;0.80;;;19.70;43.10;;;;;;6189558;28;20053;-67
2022/03/31 07:07:27;;;;;;;2.03;1.00;;;19.80;43.90;;;;;;6195302;28;20045;-67
2022/03/31 07:10:28;;;;;;;3.65;1.13;;;19.70;42.90;;;;;;6203764;28;20033;-67
2022/03/31 07:13:29;;;;;;;3.58;1.10;;;19.70;42.80;;;;;;6194304;28;20026;-67
2022/03/31 07:16:30;;;;;;;4.65;1.02;;;19.70;42.80;;;;;;6196851;28;20049;-67
2022/03/31 07:19:31;;;;;;;1.45;0.75;;;19.80;42.80;;;;;;6197174;28;20457;-67
2022/03/31 07:22:32;;;;;;;2.40;1.10;;;19.80;42.80;;;;;;6197580;28;20041;-67
2022/03/31 07:25:33;;;;;;;2.90;1.10;;;19.80;42.80;;;;;;6194484;28;20497;-67
2022/03/31 07:28:34;;;;;;;2.92;0.82;;;19.80;42.80;;;;;;6195970;28;20084;-68
2022/03/31 07:31:34;;;;;;;1.70;0.90;;;19.80;42.70;;;;;;6196544;28;20049;-67
2022/03/31 07:34:35;;;;;;;5.28;1.00;;;19.80;43.10;;;;;;6196768;28;20113;-68
2022/03/31 07:37:36;;;;;;;3.28;1.17;;;19.80;42.90;;;;;;6196695;28;20020;-68
2022/03/31 07:40:39;;;;;;;2.47;1.15;;;19.90;42.90;;;;;;6196503;28;20069;-67
2022/03/31 07:43:39;;;;;;;1.95;0.95;;;19.90;42.80;;;;;;6180492;28;20417;-67
2022/03/31 07:46:40;;;;;;;3.25;1.00;;;19.90;42.90;;;;;;6196473;28;20037;-67
2022/03/31 07:49:40;;;;;;;1.00;0.80;;;19.90;42.80;;;;;;6196359;28;20034;-67
2022/03/31 07:52:42;;;;;;;4.88;0.95;;;19.90;42.80;;;;;;6195992;28;20027;-67
2022/03/31 07:55:43;;;;;;;2.90;0.80;;;19.90;42.80;;;;;;6195718;28;20035;-67
2022/03/31 07:58:44;;;;;;;2.72;1.17;;;19.90;42.80;;;;;;6213865;28;20060;-67
2022/03/31 08:01:44;;;;;;;1.67;0.95;;;19.90;42.70;;;;;;6220449;28;20017;-67
2022/03/31 08:04:45;;;;;;;0.95;0.70;;;19.90;42.70;;;;;;6196978;28;20040;-67
2022/03/31 08:07:46;;;;;;;1.95;1.08;;;19.90;42.60;;;;;;6219983;28;20026;-67
2022/03/31 08:10:49;;;;;;;1.63;1.02;;;19.90;42.60;;;;;;6206602;28;20398;-67
2022/03/31 08:13:50;;;;;;;1.73;1.02;;;19.90;42.60;;;;;;6195906;28;20105;-68
2022/03/31 08:16:52;;;;;;;2.47;1.08;;;19.90;42.60;;;;;;6195245;28;20031;-67
2022/03/31 08:19:52;;;;;;;3.63;0.98;;;19.90;42.60;;;;;;6195898;28;20049;-67
2022/03/31 08:22:53;;;;;;;2.30;1.10;;;19.90;42.60;;;;;;6193802;28;20038;-67
2022/03/31 08:25:54;;;;;;;2.33;0.90;;;19.90;42.70;;;;;;6194252;28;20026;-68
2022/03/31 08:28:55;;;;;;;1.60;1.10;;;19.90;42.70;;;;;;6180613;28;20058;-68
2022/03/31 08:31:57;;;;;;;2.38;1.20;;;19.90;42.50;;;;;;6193953;28;20054;-68
2022/03/31 08:34:58;;;;;;;3.00;1.20;;;19.90;42.60;;;;;;6202033;28;20030;-67
2022/03/31 08:37:58;;;;;;;1.95;1.08;;;19.90;42.60;;;;;;6196826;28;20072;-69
2022/03/31 08:41:00;;;;;;;3.58;1.10;;;19.90;42.70;;;;;;6219785;28;20044;-68
2022/03/31 08:44:01;;;;;;;1.55;0.80;;;19.90;42.70;;;;;;6204143;28;20096;-68
2022/03/31 08:47:02;;;;;;;7.25;1.55;;;19.90;42.70;;;;;;6194866;28;20604;-68
2022/03/31 08:50:03;;;;;;;4.63;1.10;;;20.00;42.60;;;;;;6195331;28;20371;-68
2022/03/31 08:53:04;;;;;;;5.85;1.08;;;20.00;42.50;;;;;;6195126;28;20026;-68
2022/03/31 08:56:05;;;;;;;3.25;0.82;;;20.00;42.50;;;;;;6194902;28;20030;-68
2022/03/31 08:59:07;;;;;;;1.80;1.00;;;20.00;42.50;;;;;;6216428;28;20022;-68
2022/03/31 09:02:09;;;;;;;1.27;0.93;;;20.00;42.80;;;;;;6219175;28;20026;-68
2022/03/31 09:05:10;;;;;;;5.95;1.00;;;19.90;42.80;;;;;;6219630;28;20029;-67
2022/03/31 09:08:12;;;;;;;1.65;0.85;;;19.90;42.90;;;;;;6195004;28;20506;-68
2022/03/31 09:11:13;;;;;;;2.72;0.75;;;19.90;42.90;;;;;;6194893;28;20500;-68
2022/03/31 09:14:13;;;;;;;3.25;1.10;;;19.90;43.00;;;;;;6194757;28;20034;-68
2022/03/31 09:17:16;;;;;;;2.47;1.10;;;19.90;43.00;;;;;;6195136;28;20502;-68
2022/03/31 09:20:17;;;;;;;5.72;1.10;;;19.90;43.00;;;;;;6194998;28;20034;-68
2022/03/31 09:23:18;;;;;;;2.30;0.90;;;19.90;43.10;;;;;;6199452;28;20034;-68
2022/03/31 09:26:19;;;;;;;2.10;0.93;;;19.80;43.70;;;;;;6198556;28;20056;-68
2022/03/31 09:29:23;;;;;;;5.15;1.17;;;19.80;43.00;;;;;;6193904;28;20042;-68
2022/03/31 09:32:24;;;;;;;2.93;1.20;;;19.80;43.00;;;;;;6197680;28;20017;-68
2022/03/31 09:35:25;;;;;;;2.10;0.90;;;19.80;43.80;;;;;;6224103;28;20081;-67
2022/03/31 09:38:26;;;;;;;4.32;0.90;;;19.80;42.90;;;;;;6199305;28;20030;-67
2022/03/31 09:41:28;;;;;;;1.95;1.15;;;19.90;43.00;;;;;;6194978;28;20030;-67
2022/03/31 09:44:29;;;;;;;4.60;0.85;;;19.90;42.90;;;;;;6205570;28;20057;-68
2022/03/31 09:47:30;;;;;;;2.10;0.88;;;19.90;43.00;;;;;;6199335;28;20034;-67
2022/03/31 09:50:36;;;;;;;2.83;0.98;;;20.10;42.60;;;;;;6199178;28;20041;-68
2022/03/31 09:53:37;;;;;;;4.43;1.40;;;20.20;42.40;;;;;;6198787;28;20385;-68
2022/03/31 09:56:40;;;;;;;5.97;0.95;;;20.30;42.40;;;;;;6207716;28;20034;-67
2022/03/31 09:59:44;;;;;;;7.03;1.15;;;20.30;42.50;;;;;;6200988;28;20029;-68
2022/03/31 10:02:45;;;;;;;6.55;1.02;;;20.40;42.80;;;;;;6198793;28;20113;-68
2022/03/31 10:05:47;;;;;;;2.17;1.08;;;20.40;42.90;;;;;;6198821;28;20030;-68
2022/03/31 10:08:48;;;;;;;2.13;0.90;;;20.40;42.30;;;;;;6198808;28;20042;-68
2022/03/31 10:12:21;;;;;;;3.28;1.10;;;20.50;42.40;;;;;;6198331;28;20030;-67
2022/03/31 10:15:31;;;;;;;3.55;1.23;;;20.50;42.20;;;;;;6198365;28;20030;-68
2022/03/31 10:18:31;;;;;;;2.05;1.00;;;20.50;42.30;;;;;;6197533;28;20032;-68
2022/03/31 10:21:32;;;;;;;1.70;0.88;;;20.50;42.40;;;;;;6198555;28;20482;-68
2022/03/31 10:24:41;;;;;;;2.17;1.50;;;20.50;42.30;;;;;;6198500;28;20145;-68
2022/03/31 10:27:49;;;;;;;2.22;1.15;;;20.40;42.10;;;;;;6198112;28;20053;-67
2022/03/31 10:31:05;;;;;;;2.50;0.90;;;20.40;42.20;;;;;;6198072;28;20030;-68
2022/03/31 10:34:07;;;;;;;2.83;1.00;;;20.40;42.20;;;;;;6197493;28;20019;-68
2022/03/31 10:37:08;;;;;;;1.17;0.75;;;20.40;42.20;;;;;;6198434;28;20027;-68
2022/03/31 10:40:10;;;;;;;2.10;1.08;;;20.40;42.20;;;;;;6196582;28;20096;-68
2022/03/31 10:43:27;;;;;;;2.25;1.20;;;20.30;42.20;;;;;;6214654;28;20033;-68
2022/03/31 10:46:28;;;;;;;3.55;1.50;;;20.40;42.30;;;;;;6169131;28;20081;-67
2022/03/31 10:49:29;;;;;;;3.17;0.95;;;20.40;42.40;;;;;;6195481;28;20034;-68
2022/03/31 10:52:32;;;;;;;1.80;1.00;;;20.40;42.40;;;;;;6197626;28;20033;-68
2022/03/31 10:55:36;;;;;;;2.40;1.15;;;20.40;42.50;;;;;;6197364;28;20510;-68
2022/03/31 10:58:36;;;;;;;3.67;0.93;;;20.40;42.40;;;;;;6213637;28;20026;-67
2022/03/31 11:01:38;;;;;;;3.58;1.33;;;20.40;42.30;;;;;;6221683;28;20040;-68
2022/03/31 11:04:46;;;;;;;2.65;0.93;;;20.40;42.40;;;;;;6213400;28;20105;-68
2022/03/31 11:07:48;;;;;;;1.27;0.90;;;20.40;43.00;;;;;;6197416;28;20030;-68
2022/03/31 11:10:52;;;;;;;2.42;1.08;;;20.40;42.30;;;;;;6195979;28;20048;-67
2022/03/31 11:13:55;;;;;;;2.40;0.90;;;20.40;42.30;;;;;;6197274;28;20030;-68
2022/03/31 11:16:56;;;;;;;1.77;1.05;;;20.40;42.10;;;;;;6197471;28;20265;-68
2022/03/31 11:19:58;;;;;;;3.40;1.02;;;20.40;42.10;;;;;;6197405;28;20029;-68
2022/03/31 11:23:03;;;;;;;3.90;0.80;;;20.40;42.20;;;;;;6196957;28;20018;-67
2022/03/31 11:26:07;;;;;;;2.58;1.00;;;20.50;42.40;;;;;;6206957;28;20117;-68
2022/03/31 11:29:18;;;;;;;1.75;1.13;;;20.40;42.30;;;;;;6203167;28;20051;-68
2022/03/31 11:32:29;;;;;;;2.70;1.20;;;20.40;42.40;;;;;;6192819;28;20497;-68
2022/03/31 11:35:31;;;;;;;5.70;1.10;;;20.40;42.50;;;;;;6196880;28;20035;-68
2022/03/31 11:38:31;;;;;;;3.13;0.90;;;20.40;42.60;;;;;;6195010;28;20015;-68
2022/03/31 11:41:40;;;;;;;2.85;0.85;;;20.40;42.60;;;;;;6196292;28;20026;-68
2022/03/31 11:44:42;;;;;;;1.58;0.95;;;20.40;42.60;;;;;;6189814;28;20030;-69
2022/03/31 11:47:42;;;;;;;3.35;1.23;;;20.40;42.70;;;;;;6175175;28;20113;-67
2022/03/31 11:50:57;;;;;;;2.08;0.95;;;20.30;42.50;;;;;;6196527;28;20022;-68
2022/03/31 11:54:08;;;;;;;4.40;1.10;;;20.30;42.30;;;;;;6196452;28;20084;-69
2022/03/31 11:57:12;;;;;;;1.30;0.93;;;20.30;42.40;;;;;;6201045;28;20494;-68
2022/03/31 12:00:13;;;;;;;3.58;1.25;;;20.30;42.40;;;;;;6220524;28;20358;-69
2022/03/31 12:03:15;;;;;;;3.13;1.63;;;20.30;42.40;;;;;;6220445;28;20440;-68
2022/03/31 12:06:16;;;;;;;4.93;1.90;;;20.30;42.40;;;;;;6220402;28;20088;-69
2022/03/31 12:09:18;;;;;;;4.10;1.88;;;20.30;42.40;;;;;;6215526;28;20486;-68
2022/03/31 12:12:18;;;;;;;5.38;2.42;;;20.30;42.40;;;;;;6195894;28;20026;-68
2022/03/31 12:15:23;;;;;;;8.43;2.92;;;20.20;42.30;;;;;;6196253;28;20104;-69
2022/03/31 12:18:26;;;;;;;;;;;20.20;42.40;;;;;;6199697;28;20025;-68
2022/03/31 12:21:28;;;;;;;8.93;3.88;;;20.20;42.40;;;;;;6192647;28;19905;-68
2022/03/31 12:24:29;;;;;;;11.85;4.70;;;20.20;42.40;;;;;;6220076;28;20104;-68
2022/03/31 12:27:29;;;;;;;12.55;5.07;;;20.20;42.10;;;;;;6218515;28;20046;-67
2022/03/31 12:30:48;;;;;;;11.07;5.18;;;20.20;42.10;;;;;;6203849;28;20037;-68
2022/03/31 12:33:53;;;;;;;13.23;4.93;;;20.20;42.10;;;;;;6171043;28;20815;-68
2022/03/31 12:36:54;;;;;;;12.85;5.22;;;20.20;42.10;;;;;;6190562;28;20355;-68
2022/03/31 12:39:55;;;;;;;10.90;5.07;;;20.20;42.20;;;;;;6194832;28;20031;-68
2022/03/31 12:42:58;;;;;;;13.07;5.43;;;20.20;42.10;;;;;;6194512;28;20133;-68
2022/03/31 12:46:11;;;;;;;16.35;7.05;;;20.20;42.10;;;;;;6194094;28;20053;-68
2022/03/31 12:49:14;;;;;;;16.52;6.57;;;20.20;42.20;;;;;;6194481;28;20521;-68
2022/03/31 12:52:18;;;;;;;18.70;7.80;;;20.20;42.20;;;;;;6195041;28;20027;-68
2022/03/31 12:55:18;;;;;;;15.98;7.65;;;20.20;42.30;;;;;;6195103;28;20062;-68
2022/03/31 12:58:19;;;;;;;21.73;9.02;;;20.20;42.30;;;;;;6213780;28;20036;-68
2022/03/31 13:01:20;;;;;;;24.92;9.88;;;20.20;42.20;;;;;;6223845;28;20030;-67
2022/03/31 13:04:21;;;;;;;27.55;10.18;;;20.20;42.20;;;;;;6223084;28;20022;-68
2022/03/31 13:07:27;;;;;;;20.02;8.65;;;20.20;42.40;;;;;;6223576;28;20044;-67
2022/03/31 13:10:28;;;;;;;21.15;9.27;;;20.20;42.40;;;;;;6223800;28;20045;-68
2022/03/31 13:13:28;;;;;;;29.63;11.27;;;20.20;42.60;;;;;;6223515;28;20029;-68
2022/03/31 13:16:30;;;;;;;23.92;10.13;;;20.10;42.60;;;;;;6223408;28;20018;-67
2022/03/31 13:19:34;;;;;;;26.00;10.52;;;20.10;42.70;;;;;;6223815;28;20030;-68
2022/03/31 13:22:35;;;;;;;29.80;12.00;;;20.10;42.90;;;;;;6179054;28;20037;-68
2022/03/31 13:25:36;;;;;;;42.17;16.63;;;20.10;42.90;;;;;;6196859;28;20027;-68
2022/03/31 13:28:39;;;;;;;34.50;14.05;;;20.10;42.90;;;;;;6198760;28;20070;-68
2022/03/31 13:31:40;;;;;;;29.85;12.95;;;20.10;42.80;;;;;;6197042;28;20026;-69
2022/03/31 13:34:46;;;;;;;42.80;16.95;;;20.10;42.90;;;;;;6199129;28;20385;-68
2022/03/31 13:37:48;;;;;;;42.50;17.80;;;20.10;42.90;;;;;;6198501;28;20103;-69
2022/03/31 13:40:49;;;;;;;50.40;19.55;;;20.10;43.00;;;;;;6198746;28;20027;-68
2022/03/31 13:43:49;;;;;;;57.40;20.23;;;20.10;43.00;;;;;;6198717;28;20033;-68
2022/03/31 13:46:53;;;;;;;70.88;28.10;;;20.00;43.00;;;;;;6197925;28;20085;-68
2022/03/31 13:49:53;;;;;;;58.33;22.98;;;20.10;42.90;;;;;;6198623;28;20041;-68
2022/03/31 13:56:14;;;;;;;70.28;26.38;;;20.00;42.80;;;;;;6198052;28;20034;-68
2022/03/31 14:02:36;;;;;;;62.97;24.63;;;20.00;42.90;;;;;;6222930;28;20029;-68
2022/03/31 14:05:36;;;;;;;71.60;27.88;;;20.00;42.90;;;;;;6222587;28;20469;-68
2022/03/31 14:08:37;;;;;;;71.72;28.92;;;20.00;42.90;;;;;;6199334;28;20038;-68
2022/03/31 14:11:37;;;;;;;83.10;30.55;;;20.00;43.00;;;;;;6198021;28;20029;-68
2022/03/31 14:14:38;;;;;;;81.45;30.55;;;20.00;42.90;;;;;;6200073;28;20061;-68
2022/03/31 14:17:39;;;;;;;79.85;29.27;;;20.00;42.90;;;;;;6221758;28;20079;-68
2022/03/31 14:20:40;;;;;;;70.18;28.35;;;20.00;43.00;;;;;;6212726;28;20097;-68
2022/03/31 14:23:41;;;;;;;79.18;31.60;;;20.00;42.90;;;;;;6197993;28;20108;-68
2022/03/31 14:26:43;;;;;;;75.00;29.05;;;20.00;42.90;;;;;;6197005;28;20085;-68
2022/03/31 14:29:44;;;;;;;71.05;29.58;;;20.00;42.90;;;;;;6197296;28;20034;-68
2022/03/31 14:32:45;;;;;;;66.68;27.83;;;20.00;42.90;;;;;;6196253;28;20556;-68
2022/03/31 14:35:47;;;;;;;62.15;27.23;;;20.10;42.90;;;;;;6197108;28;20018;-68
2022/03/31 14:38:48;;;;;;;66.88;26.45;;;20.20;42.80;;;;;;6197290;28;20477;-68
2022/03/31 14:41:50;;;;;;;71.25;28.70;;;20.10;43.00;;;;;;6184484;28;20033;-69
2022/03/31 14:44:51;;;;;;;61.88;26.02;;;20.10;43.00;;;;;;6200857;28;20511;-68
2022/03/31 14:47:52;;;;;;;68.97;27.45;;;20.10;43.00;;;;;;6174335;28;20494;-68
2022/03/31 14:50:52;;;;;;;62.85;25.23;;;20.10;43.00;;;;;;6197048;28;20026;-68
2022/03/31 14:53:54;;;;;;;60.38;25.45;;;20.00;42.90;;;;;;6196799;28;20402;-68
2022/03/31 14:56:56;;;;;;;61.97;25.48;;;20.00;42.70;;;;;;6199914;28;20088;-68
2022/03/31 14:59:56;;;;;;;62.90;26.10;;;20.10;42.60;;;;;;6221147;28;20029;-68
2022/03/31 15:02:57;;;;;;;62.38;26.23;;;20.10;42.60;;;;;;6221057;28;20025;-68
2022/03/31 15:05:58;;;;;;;63.80;25.67;;;20.10;42.60;;;;;;6222296;28;20116;-68
2022/03/31 15:09:00;;;;;;;65.13;24.30;;;20.10;42.60;;;;;;6222042;28;20136;-68
2022/03/31 15:15:21;;;;;;;48.28;22.00;;;20.10;42.90;;;;;;6218278;28;20026;-67
2022/03/31 15:18:22;;;;;;;52.53;20.55;;;20.10;43.00;;;;;;6195989;28;20436;-68
2022/03/31 15:21:23;;;;;;;58.95;21.52;;;20.10;43.10;;;;;;6196310;28;20025;-68
2022/03/31 15:24:24;;;;;;;56.92;21.65;;;20.10;43.10;;;;;;6195662;28;20027;-68
2022/03/31 15:27:24;;;;;;;57.20;22.35;;;20.10;43.10;;;;;;6195790;28;20494;-68
2022/03/31 15:30:25;;;;;;;50.83;20.83;;;20.10;43.20;;;;;;6196081;28;20453;-68
2022/03/31 15:33:26;;;;;;;51.72;19.92;;;20.10;43.20;;;;;;6196087;28;20026;-69
2022/03/31 15:36:26;;;;;;;47.88;20.23;;;20.10;43.20;;;;;;6195335;28;20029;-68
2022/03/31 15:39:28;;;;;;;43.38;18.77;;;20.10;43.30;;;;;;6196114;28;20385;-68
2022/03/31 15:42:28;;;;;;;43.28;18.67;;;20.10;43.40;;;;;;6195731;28;20440;-68
2022/03/31 15:45:29;;;;;;;46.83;19.58;;;20.10;43.50;;;;;;6195436;28;20019;-67
2022/03/31 15:48:30;;;;;;;44.97;18.27;;;20.10;43.60;;;;;;6195130;28;20085;-68
2022/03/31 15:51:30;;;;;;;36.40;17.33;;;20.10;43.70;;;;;;6195406;28;20045;-69
2022/03/31 15:54:31;;;;;;;36.50;16.65;;;20.10;43.60;;;;;;6215608;28;20045;-68